ストックホルム/アーランダ の空港の天気 - METARとTAF

ストックホルム・アーランダ空港 ( ESSA / ARN ) - スウェーデン ストックホルム
飛行場実況気象(Metar)
観測時間05/28 12:20 CEST (05/28 10:20 UTC)
風向・風速北北西 4m/s
視程10km以上
天気現象弱い雨
少しの雲 雲底高度 270m
全天の4割程度の雲 雲底高度 430m
気温9℃
湿度93%
気圧999hPa
METARESSA 281020Z 34007KT 9999 -RA FEW009 SCT014 09/08 Q0999 TEMPO BKN015
過去の天気等 Google飛行場航空写真 Wunderground天気予報

過去48時間のMETAR

飛行場予報(TAF)
発表時間: 5/28 10:30 CEST (5/28 08:30 UTC)
予報対象時間: 28日11時 CEST ~ 29日11時 CEST
風向・風速北西 4m/s
視程10km以上
全天の4割程度の雲 雲底高度 300m
全天の8割程度の雲 雲底高度 460m
28日11時 CEST ~ 28日19時 CEST に一時的に
視程4000m
天気現象雨霧雨
全天の8割程度の雲 雲底高度 240m
28日19時 CEST から 確率 40% で
視程4000m
天気現象もや
全天の8割程度の塔状積雲 雲底高度 610m
TAF ESSA 280830Z 2809/2909 32008KT 9999 SCT010 BKN015
TEMPO 2809/2817 4000 RADZ BKN008
PROB40 2817/2822 4000 BR BKN020TCU